Washington, DC (20554)

2:45 AM EDT on April 28, 2017 (GMT -0400)
The Washington Post | | Change Station

Elev 151 ft 38.90 °N, 77.03 °W | Updated 10 seconds ago

Mostly Cloudy
Mostly Cloudy
70.7 °F
Feels Like 74 °F
N
4.0
Wind Variable Wind from SSE
Gusts 7.0 mph

Today
High -- | Low -- °F
--% Chance of Precip.
Yesterday
High -- | Low -- °F
Precip. -- in
Pressure 29.87 in
Visibility 10.0 miles
Clouds Few 1700 ft
Few 9000 ft
Mostly Cloudy 12000 ft
Heat Index 74 °F
Dew Point 61 °F
Humidity 72%
Rainfall 0.00 in
Snow Depth Not available.
6:13 AM 7:58 PM
Waxing Crescent, 5% visible
SPECI KDCA 280630Z 21006KT 10SM FEW017 FEW090 BKN120 21/17 A2987 RMK AO2 LTG DSNT NE AND SW RAB11E24 TSB09E24 P0000 T02060172
Pressure 29.87 in
Visibility 10.0 miles
Clouds Few 1700 ft
Few 9000 ft
Mostly Cloudy 12000 ft
Heat Index 74 °F
Dew Point 61 °F
Humidity 72%
Rainfall 0.00 in
Snow Depth Not available.
6:13 AM 7:58 PM
Waxing Crescent, 5% visible
SPECI KDCA 280630Z 21006KT 10SM FEW017 FEW090 BKN120 21/17 A2987 RMK AO2 LTG DSNT NE AND SW RAB11E24 TSB09E24 P0000 T02060172

Get Severe Weather Alerts

Thanks for signing up!

Be on the lookout for a verification email in your inbox.

You'll start receiving the daily forecast at 8 AM.

×

10-Day Weather Forecast

Almanac

Astronomy

Apr. 28, 2017 Rise Set
Actual Time
Civil Twilight
Nautical Twilight
Astronomical Twilight
Moon
Length of Visible Light
Length of Day
Tomorrow will be .
, % of the Moon is Illuminated

Today's Extremes

State Highs State Lows

Community

WunderPhotos

WunderBlog® & News

Nearby

Air Quality

  Air Quality AQ Index Pollutant
Not available.

Snow Depth

Station Depth Elevation

Earthquake Activity

City Distance Mag. Time & Date
Minimum magnitude displayed is 2.5.

Coastal Water Temperatures

Place Temperature

Stations

Nearby Weather Stations

Station Location Temp. Windchill Dew Point Humidity Wind Precip. Elev Updated Type
                   

Watches & Warnings

There are currently no watches in effect.